sensor_id;sensor_type;location;lat;lon;timestamp;P1;durP1;ratioP1;P2;durP2;ratioP2
77040;SDS011;65974;42.664;23.264;2023-06-26T00:01:49;25.02;;;15.10;;
77040;SDS011;65974;42.664;23.264;2023-06-26T00:04:14;20.63;;;14.73;;
77040;SDS011;65974;42.664;23.264;2023-06-26T00:06:40;25.55;;;14.63;;
77040;SDS011;65974;42.664;23.264;2023-06-26T00:09:06;25.17;;;17.08;;
77040;SDS011;65974;42.664;23.264;2023-06-26T00:11:32;25.55;;;16.85;;
77040;SDS011;65974;42.664;23.264;2023-06-26T00:13:59;25.58;;;15.30;;
77040;SDS011;65974;42.664;23.264;2023-06-26T00:16:25;24.20;;;15.65;;
77040;SDS011;65974;42.664;23.264;2023-06-26T00:18:52;21.95;;;15.13;;
77040;SDS011;65974;42.664;23.264;2023-06-26T00:21:18;23.42;;;14.75;;
77040;SDS011;65974;42.664;23.264;2023-06-26T00:23:44;23.52;;;14.38;;
77040;SDS011;65974;42.664;23.264;2023-06-26T00:26:10;25.85;;;14.77;;
77040;SDS011;65974;42.664;23.264;2023-06-26T00:28:37;21.75;;;13.95;;
77040;SDS011;65974;42.664;23.264;2023-06-26T00:31:04;22.83;;;15.20;;
77040;SDS011;65974;42.664;23.264;2023-06-26T00:33:29;22.17;;;13.77;;
77040;SDS011;65974;42.664;23.264;2023-06-26T00:35:55;23.83;;;15.38;;
77040;SDS011;65974;42.664;23.264;2023-06-26T00:38:20;24.58;;;14.82;;
77040;SDS011;65974;42.664;23.264;2023-06-26T00:40:47;23.30;;;13.95;;
77040;SDS011;65974;42.664;23.264;2023-06-26T00:43:13;20.08;;;12.63;;
77040;SDS011;65974;42.664;23.264;2023-06-26T00:45:38;19.13;;;13.25;;
77040;SDS011;65974;42.664;23.264;2023-06-26T00:48:04;23.88;;;13.63;;
77040;SDS011;65974;42.664;23.264;2023-06-26T00:50:32;19.08;;;11.90;;
77040;SDS011;65974;42.664;23.264;2023-06-26T00:52:59;19.70;;;12.63;;
77040;SDS011;65974;42.664;23.264;2023-06-26T00:55:26;21.92;;;14.43;;
77040;SDS011;65974;42.664;23.264;2023-06-26T00:57:53;18.52;;;13.50;;
77040;SDS011;65974;42.664;23.264;2023-06-26T01:00:20;19.30;;;12.90;;
77040;SDS011;65974;42.664;23.264;2023-06-26T01:02:45;18.20;;;12.82;;
77040;SDS011;65974;42.664;23.264;2023-06-26T01:05:11;20.02;;;12.90;;
77040;SDS011;65974;42.664;23.264;2023-06-26T01:07:44;18.95;;;13.60;;
77040;SDS011;65974;42.664;23.264;2023-06-26T01:10:09;21.83;;;13.73;;
77040;SDS011;65974;42.664;23.264;2023-06-26T01:12:35;21.55;;;13.25;;
77040;SDS011;65974;42.664;23.264;2023-06-26T01:15:03;18.40;;;12.23;;
77040;SDS011;65974;42.664;23.264;2023-06-26T01:17:29;24.83;;;13.32;;
77040;SDS011;65974;42.664;23.264;2023-06-26T01:19:57;18.88;;;12.52;;
77040;SDS011;65974;42.664;23.264;2023-06-26T01:28:03;18.20;;;12.23;;
77040;SDS011;65974;42.664;23.264;2023-06-26T01:30:32;20.73;;;12.43;;
77040;SDS011;65974;42.664;23.264;2023-06-26T01:33:03;21.05;;;14.30;;
77040;SDS011;65974;42.664;23.264;2023-06-26T01:35:29;21.05;;;13.07;;
77040;SDS011;65974;42.664;23.264;2023-06-26T01:38:10;19.52;;;13.05;;
77040;SDS011;65974;42.664;23.264;2023-06-26T01:40:44;17.30;;;12.43;;
77040;SDS011;65974;42.664;23.264;2023-06-26T01:43:23;20.85;;;14.00;;
77040;SDS011;65974;42.664;23.264;2023-06-26T01:45:54;24.42;;;16.15;;
77040;SDS011;65974;42.664;23.264;2023-06-26T01:48:26;23.40;;;14.02;;
77040;SDS011;65974;42.664;23.264;2023-06-26T01:50:56;22.35;;;14.43;;
77040;SDS011;65974;42.664;23.264;2023-06-26T01:53:25;22.25;;;13.80;;
77040;SDS011;65974;42.664;23.264;2023-06-26T01:56:01;22.27;;;12.82;;
77040;SDS011;65974;42.664;23.264;2023-06-26T01:58:33;22.20;;;14.15;;
77040;SDS011;65974;42.664;23.264;2023-06-26T02:01:01;22.02;;;15.07;;
77040;SDS011;65974;42.664;23.264;2023-06-26T02:03:28;23.13;;;13.43;;
77040;SDS011;65974;42.664;23.264;2023-06-26T02:05:55;20.08;;;13.45;;
77040;SDS011;65974;42.664;23.264;2023-06-26T02:08:20;20.75;;;14.20;;
77040;SDS011;65974;42.664;23.264;2023-06-26T02:10:47;18.45;;;12.82;;
77040;SDS011;65974;42.664;23.264;2023-06-26T02:13:13;19.83;;;13.23;;
77040;SDS011;65974;42.664;23.264;2023-06-26T02:15:39;21.42;;;14.70;;
77040;SDS011;65974;42.664;23.264;2023-06-26T02:18:04;20.77;;;13.60;;
77040;SDS011;65974;42.664;23.264;2023-06-26T02:20:31;24.48;;;14.15;;
77040;SDS011;65974;42.664;23.264;2023-06-26T02:23:00;22.63;;;14.77;;
77040;SDS011;65974;42.664;23.264;2023-06-26T02:25:25;20.05;;;14.27;;
77040;SDS011;65974;42.664;23.264;2023-06-26T02:27:50;24.88;;;14.95;;
77040;SDS011;65974;42.664;23.264;2023-06-26T02:30:17;20.88;;;13.93;;
77040;SDS011;65974;42.664;23.264;2023-06-26T02:32:46;24.13;;;15.07;;
77040;SDS011;65974;42.664;23.264;2023-06-26T02:35:12;22.98;;;14.95;;
77040;SDS011;65974;42.664;23.264;2023-06-26T02:37:38;23.92;;;14.90;;
77040;SDS011;65974;42.664;23.264;2023-06-26T02:40:04;22.92;;;15.10;;
77040;SDS011;65974;42.664;23.264;2023-06-26T02:42:31;23.90;;;16.08;;
77040;SDS011;65974;42.664;23.264;2023-06-26T02:44:57;23.70;;;15.52;;
77040;SDS011;65974;42.664;23.264;2023-06-26T02:47:22;26.27;;;16.98;;
77040;SDS011;65974;42.664;23.264;2023-06-26T02:49:48;21.50;;;14.55;;
77040;SDS011;65974;42.664;23.264;2023-06-26T02:52:15;21.70;;;14.90;;
77040;SDS011;65974;42.664;23.264;2023-06-26T02:54:40;23.83;;;16.42;;
77040;SDS011;65974;42.664;23.264;2023-06-26T02:57:06;23.65;;;15.35;;
77040;SDS011;65974;42.664;23.264;2023-06-26T02:59:31;22.90;;;15.40;;
77040;SDS011;65974;42.664;23.264;2023-06-26T03:01:57;24.85;;;15.43;;
77040;SDS011;65974;42.664;23.264;2023-06-26T03:04:24;28.45;;;16.80;;
77040;SDS011;65974;42.664;23.264;2023-06-26T03:06:49;22.83;;;15.93;;
77040;SDS011;65974;42.664;23.264;2023-06-26T03:09:14;25.27;;;16.20;;
77040;SDS011;65974;42.664;23.264;2023-06-26T03:11:41;27.85;;;15.65;;
77040;SDS011;65974;42.664;23.264;2023-06-26T03:14:06;24.02;;;15.93;;
77040;SDS011;65974;42.664;23.264;2023-06-26T03:16:32;27.50;;;17.13;;
77040;SDS011;65974;42.664;23.264;2023-06-26T03:18:57;23.58;;;16.33;;
77040;SDS011;65974;42.664;23.264;2023-06-26T03:21:26;27.10;;;17.27;;
77040;SDS011;65974;42.664;23.264;2023-06-26T03:23:51;27.63;;;17.10;;
77040;SDS011;65974;42.664;23.264;2023-06-26T03:26:17;25.55;;;16.67;;
77040;SDS011;65974;42.664;23.264;2023-06-26T03:28:43;25.23;;;17.00;;
77040;SDS011;65974;42.664;23.264;2023-06-26T03:31:09;28.55;;;17.33;;
77040;SDS011;65974;42.664;23.264;2023-06-26T03:33:34;25.25;;;17.05;;
77040;SDS011;65974;42.664;23.264;2023-06-26T03:35:59;30.42;;;17.55;;
77040;SDS011;65974;42.664;23.264;2023-06-26T03:38:26;25.33;;;17.45;;
77040;SDS011;65974;42.664;23.264;2023-06-26T03:40:52;27.15;;;17.60;;
77040;SDS011;65974;42.664;23.264;2023-06-26T03:43:17;25.42;;;16.58;;
77040;SDS011;65974;42.664;23.264;2023-06-26T03:45:43;30.17;;;17.35;;
77040;SDS011;65974;42.664;23.264;2023-06-26T03:48:09;27.40;;;17.67;;
77040;SDS011;65974;42.664;23.264;2023-06-26T03:50:34;22.58;;;15.95;;
77040;SDS011;65974;42.664;23.264;2023-06-26T03:53:00;23.27;;;17.13;;
77040;SDS011;65974;42.664;23.264;2023-06-26T03:55:27;24.35;;;16.48;;
77040;SDS011;65974;42.664;23.264;2023-06-26T03:57:52;25.60;;;16.30;;
77040;SDS011;65974;42.664;23.264;2023-06-26T04:00:18;27.30;;;17.85;;
77040;SDS011;65974;42.664;23.264;2023-06-26T04:02:46;28.75;;;17.63;;
77040;SDS011;65974;42.664;23.264;2023-06-26T04:05:11;26.48;;;17.77;;
77040;SDS011;65974;42.664;23.264;2023-06-26T04:07:37;25.55;;;17.55;;
77040;SDS011;65974;42.664;23.264;2023-06-26T04:10:05;25.17;;;16.92;;
77040;SDS011;65974;42.664;23.264;2023-06-26T04:12:31;23.15;;;16.08;;
77040;SDS011;65974;42.664;23.264;2023-06-26T04:14:57;26.25;;;17.88;;
77040;SDS011;65974;42.664;23.264;2023-06-26T04:17:22;25.08;;;16.70;;
77040;SDS011;65974;42.664;23.264;2023-06-26T04:19:47;24.25;;;16.60;;
77040;SDS011;65974;42.664;23.264;2023-06-26T04:22:13;24.50;;;17.00;;
77040;SDS011;65974;42.664;23.264;2023-06-26T04:24:40;22.63;;;16.38;;
77040;SDS011;65974;42.664;23.264;2023-06-26T04:27:05;22.67;;;16.33;;
77040;SDS011;65974;42.664;23.264;2023-06-26T04:29:32;21.52;;;14.75;;
77040;SDS011;65974;42.664;23.264;2023-06-26T04:31:58;23.70;;;16.02;;
77040;SDS011;65974;42.664;23.264;2023-06-26T04:34:25;28.92;;;17.25;;
77040;SDS011;65974;42.664;23.264;2023-06-26T04:36:52;26.30;;;15.70;;
77040;SDS011;65974;42.664;23.264;2023-06-26T04:39:18;24.50;;;16.02;;
77040;SDS011;65974;42.664;23.264;2023-06-26T04:41:44;24.85;;;17.17;;
77040;SDS011;65974;42.664;23.264;2023-06-26T04:44:10;22.25;;;15.90;;
77040;SDS011;65974;42.664;23.264;2023-06-26T04:46:36;24.70;;;17.10;;
77040;SDS011;65974;42.664;23.264;2023-06-26T04:49:06;24.90;;;16.48;;
77040;SDS011;65974;42.664;23.264;2023-06-26T04:51:31;27.05;;;17.35;;
77040;SDS011;65974;42.664;23.264;2023-06-26T04:53:57;26.85;;;15.75;;
77040;SDS011;65974;42.664;23.264;2023-06-26T04:56:22;23.38;;;16.95;;
77040;SDS011;65974;42.664;23.264;2023-06-26T04:58:47;22.08;;;15.27;;
77040;SDS011;65974;42.664;23.264;2023-06-26T05:01:13;27.73;;;16.95;;
77040;SDS011;65974;42.664;23.264;2023-06-26T05:03:38;24.08;;;16.77;;
77040;SDS011;65974;42.664;23.264;2023-06-26T05:06:04;22.45;;;15.18;;
77040;SDS011;65974;42.664;23.264;2023-06-26T05:08:30;21.95;;;15.98;;
77040;SDS011;65974;42.664;23.264;2023-06-26T05:10:56;24.65;;;16.92;;
77040;SDS011;65974;42.664;23.264;2023-06-26T05:13:24;24.65;;;16.55;;
77040;SDS011;65974;42.664;23.264;2023-06-26T05:15:53;23.58;;;15.60;;
77040;SDS011;65974;42.664;23.264;2023-06-26T05:18:21;27.20;;;16.67;;
77040;SDS011;65974;42.664;23.264;2023-06-26T05:20:49;25.50;;;16.55;;
77040;SDS011;65974;42.664;23.264;2023-06-26T05:23:15;24.10;;;16.33;;
77040;SDS011;65974;42.664;23.264;2023-06-26T05:25:41;24.50;;;16.02;;
77040;SDS011;65974;42.664;23.264;2023-06-26T05:31:01;23.58;;;15.40;;
77040;SDS011;65974;42.664;23.264;2023-06-26T05:33:30;28.08;;;16.42;;
77040;SDS011;65974;42.664;23.264;2023-06-26T05:35:56;22.48;;;16.00;;
77040;SDS011;65974;42.664;23.264;2023-06-26T05:41:21;19.73;;;14.20;;
77040;SDS011;65974;42.664;23.264;2023-06-26T05:43:50;23.45;;;15.07;;
77040;SDS011;65974;42.664;23.264;2023-06-26T05:46:19;22.50;;;15.88;;
77040;SDS011;65974;42.664;23.264;2023-06-26T05:48:59;22.25;;;15.25;;
77040;SDS011;65974;42.664;23.264;2023-06-26T05:51:26;24.75;;;16.10;;
77040;SDS011;65974;42.664;23.264;2023-06-26T05:54:15;23.42;;;15.95;;
77040;SDS011;65974;42.664;23.264;2023-06-26T05:57:22;23.80;;;15.30;;
77040;SDS011;65974;42.664;23.264;2023-06-26T06:00:20;23.88;;;16.75;;
77040;SDS011;65974;42.664;23.264;2023-06-26T06:02:58;21.48;;;14.45;;
77040;SDS011;65974;42.664;23.264;2023-06-26T06:05:24;23.67;;;16.90;;
77040;SDS011;65974;42.664;23.264;2023-06-26T06:07:49;25.75;;;15.98;;
77040;SDS011;65974;42.664;23.264;2023-06-26T06:10:15;23.55;;;16.08;;
77040;SDS011;65974;42.664;23.264;2023-06-26T06:12:48;23.65;;;14.38;;
77040;SDS011;65974;42.664;23.264;2023-06-26T06:15:32;19.20;;;14.48;;
77040;SDS011;65974;42.664;23.264;2023-06-26T06:18:08;21.73;;;15.35;;
77040;SDS011;65974;42.664;23.264;2023-06-26T06:20:48;23.98;;;14.20;;
77040;SDS011;65974;42.664;23.264;2023-06-26T06:23:18;20.10;;;13.80;;
77040;SDS011;65974;42.664;23.264;2023-06-26T06:25:48;20.70;;;15.05;;
77040;SDS011;65974;42.664;23.264;2023-06-26T06:28:13;24.60;;;14.50;;
77040;SDS011;65974;42.664;23.264;2023-06-26T06:30:41;22.08;;;15.15;;
77040;SDS011;65974;42.664;23.264;2023-06-26T06:33:07;21.52;;;14.50;;
77040;SDS011;65974;42.664;23.264;2023-06-26T06:35:32;21.52;;;13.73;;
77040;SDS011;65974;42.664;23.264;2023-06-26T06:38:09;23.02;;;13.82;;
77040;SDS011;65974;42.664;23.264;2023-06-26T06:40:42;19.63;;;14.27;;
77040;SDS011;65974;42.664;23.264;2023-06-26T06:43:12;18.40;;;13.13;;
77040;SDS011;65974;42.664;23.264;2023-06-26T06:46:10;16.27;;;12.57;;
77040;SDS011;65974;42.664;23.264;2023-06-26T06:48:41;20.75;;;13.57;;
77040;SDS011;65974;42.664;23.264;2023-06-26T06:51:16;20.45;;;13.63;;
77040;SDS011;65974;42.664;23.264;2023-06-26T06:57:02;18.70;;;13.13;;
77040;SDS011;65974;42.664;23.264;2023-06-26T06:59:38;18.35;;;13.13;;
77040;SDS011;65974;42.664;23.264;2023-06-26T07:02:07;15.38;;;10.70;;
77040;SDS011;65974;42.664;23.264;2023-06-26T07:04:37;15.85;;;11.52;;
77040;SDS011;65974;42.664;23.264;2023-06-26T07:07:03;15.95;;;11.82;;
77040;SDS011;65974;42.664;23.264;2023-06-26T07:09:28;16.85;;;12.43;;
77040;SDS011;65974;42.664;23.264;2023-06-26T07:11:54;18.52;;;11.98;;
77040;SDS011;65974;42.664;23.264;2023-06-26T07:14:21;18.75;;;11.75;;
77040;SDS011;65974;42.664;23.264;2023-06-26T07:16:49;16.33;;;12.02;;
77040;SDS011;65974;42.664;23.264;2023-06-26T07:19:14;17.20;;;12.60;;
77040;SDS011;65974;42.664;23.264;2023-06-26T07:21:42;16.85;;;11.15;;
77040;SDS011;65974;42.664;23.264;2023-06-26T07:24:24;16.70;;;11.18;;
77040;SDS011;65974;42.664;23.264;2023-06-26T07:26:50;20.95;;;10.38;;
77040;SDS011;65974;42.664;23.264;2023-06-26T07:29:15;14.15;;;9.98;;
77040;SDS011;65974;42.664;23.264;2023-06-26T07:31:40;14.30;;;9.95;;
77040;SDS011;65974;42.664;23.264;2023-06-26T07:34:06;10.40;;;6.97;;
77040;SDS011;65974;42.664;23.264;2023-06-26T07:36:33;13.82;;;9.13;;
77040;SDS011;65974;42.664;23.264;2023-06-26T07:38:58;15.35;;;9.70;;
77040;SDS011;65974;42.664;23.264;2023-06-26T07:41:24;15.40;;;10.18;;
77040;SDS011;65974;42.664;23.264;2023-06-26T07:43:49;12.82;;;9.43;;
77040;SDS011;65974;42.664;23.264;2023-06-26T07:46:15;14.32;;;9.40;;
77040;SDS011;65974;42.664;23.264;2023-06-26T07:48:40;12.48;;;8.52;;
77040;SDS011;65974;42.664;23.264;2023-06-26T07:51:06;12.27;;;8.25;;
77040;SDS011;65974;42.664;23.264;2023-06-26T07:58:24;12.88;;;8.77;;
77040;SDS011;65974;42.664;23.264;2023-06-26T08:00:51;12.13;;;8.40;;
77040;SDS011;65974;42.664;23.264;2023-06-26T08:03:16;11.27;;;7.10;;
77040;SDS011;65974;42.664;23.264;2023-06-26T08:05:42;12.07;;;8.48;;
77040;SDS011;65974;42.664;23.264;2023-06-26T08:08:07;10.88;;;7.85;;
77040;SDS011;65974;42.664;23.264;2023-06-26T08:10:33;12.25;;;8.40;;
77040;SDS011;65974;42.664;23.264;2023-06-26T08:12:59;12.73;;;8.32;;
77040;SDS011;65974;42.664;23.264;2023-06-26T08:15:24;11.52;;;8.27;;
77040;SDS011;65974;42.664;23.264;2023-06-26T08:17:50;11.00;;;6.68;;
77040;SDS011;65974;42.664;23.264;2023-06-26T08:20:16;9.82;;;7.45;;
77040;SDS011;65974;42.664;23.264;2023-06-26T08:22:41;11.30;;;7.93;;
77040;SDS011;65974;42.664;23.264;2023-06-26T08:25:07;12.88;;;8.70;;
77040;SDS011;65974;42.664;23.264;2023-06-26T08:27:33;11.30;;;7.32;;
77040;SDS011;65974;42.664;23.264;2023-06-26T08:29:58;9.60;;;7.10;;
77040;SDS011;65974;42.664;23.264;2023-06-26T08:32:24;10.60;;;7.13;;
77040;SDS011;65974;42.664;23.264;2023-06-26T08:34:50;10.98;;;5.97;;
77040;SDS011;65974;42.664;23.264;2023-06-26T08:37:15;12.05;;;6.78;;
77040;SDS011;65974;42.664;23.264;2023-06-26T08:39:41;10.18;;;6.70;;
77040;SDS011;65974;42.664;23.264;2023-06-26T08:42:07;9.70;;;6.28;;
77040;SDS011;65974;42.664;23.264;2023-06-26T08:44:32;9.52;;;6.45;;
77040;SDS011;65974;42.664;23.264;2023-06-26T08:47:00;9.85;;;5.72;;
77040;SDS011;65974;42.664;23.264;2023-06-26T08:49:51;8.55;;;5.78;;
77040;SDS011;65974;42.664;23.264;2023-06-26T08:52:23;10.65;;;7.47;;
77040;SDS011;65974;42.664;23.264;2023-06-26T08:54:56;13.70;;;5.97;;
77040;SDS011;65974;42.664;23.264;2023-06-26T08:57:25;12.45;;;6.25;;
77040;SDS011;65974;42.664;23.264;2023-06-26T08:59:53;9.95;;;6.43;;
77040;SDS011;65974;42.664;23.264;2023-06-26T09:02:20;8.70;;;6.38;;
77040;SDS011;65974;42.664;23.264;2023-06-26T09:04:48;11.52;;;6.40;;
77040;SDS011;65974;42.664;23.264;2023-06-26T09:07:15;10.10;;;6.25;;
77040;SDS011;65974;42.664;23.264;2023-06-26T09:09:41;10.88;;;7.18;;
77040;SDS011;65974;42.664;23.264;2023-06-26T09:12:07;10.65;;;5.97;;
77040;SDS011;65974;42.664;23.264;2023-06-26T09:14:33;10.77;;;5.65;;
77040;SDS011;65974;42.664;23.264;2023-06-26T09:17:00;8.35;;;5.90;;
77040;SDS011;65974;42.664;23.264;2023-06-26T09:19:26;9.85;;;5.15;;
77040;SDS011;65974;42.664;23.264;2023-06-26T09:21:52;9.85;;;5.72;;
77040;SDS011;65974;42.664;23.264;2023-06-26T09:24:17;10.93;;;5.75;;
77040;SDS011;65974;42.664;23.264;2023-06-26T09:26:43;11.43;;;7.07;;
77040;SDS011;65974;42.664;23.264;2023-06-26T09:29:09;8.65;;;5.78;;
77040;SDS011;65974;42.664;23.264;2023-06-26T09:31:39;11.80;;;6.00;;
77040;SDS011;65974;42.664;23.264;2023-06-26T09:34:05;10.85;;;7.55;;
77040;SDS011;65974;42.664;23.264;2023-06-26T09:36:32;11.15;;;7.03;;
77040;SDS011;65974;42.664;23.264;2023-06-26T09:39:06;10.38;;;6.60;;
77040;SDS011;65974;42.664;23.264;2023-06-26T09:41:43;10.45;;;5.68;;
77040;SDS011;65974;42.664;23.264;2023-06-26T09:44:11;10.45;;;5.90;;
77040;SDS011;65974;42.664;23.264;2023-06-26T09:46:39;9.30;;;5.75;;
77040;SDS011;65974;42.664;23.264;2023-06-26T09:51:38;7.70;;;5.03;;
77040;SDS011;65974;42.664;23.264;2023-06-26T09:54:05;10.82;;;5.35;;
77040;SDS011;65974;42.664;23.264;2023-06-26T09:56:50;10.52;;;6.20;;
77040;SDS011;65974;42.664;23.264;2023-06-26T09:59:15;8.93;;;5.90;;
77040;SDS011;65974;42.664;23.264;2023-06-26T10:01:45;9.70;;;6.78;;
77040;SDS011;65974;42.664;23.264;2023-06-26T10:04:11;8.65;;;5.05;;
77040;SDS011;65974;42.664;23.264;2023-06-26T10:06:42;10.45;;;6.00;;
77040;SDS011;65974;42.664;23.264;2023-06-26T10:09:16;10.27;;;5.43;;
77040;SDS011;65974;42.664;23.264;2023-06-26T10:11:49;10.05;;;6.18;;
77040;SDS011;65974;42.664;23.264;2023-06-26T10:14:34;8.30;;;5.47;;
77040;SDS011;65974;42.664;23.264;2023-06-26T10:17:07;8.88;;;4.82;;
77040;SDS011;65974;42.664;23.264;2023-06-26T10:19:38;9.48;;;4.93;;
77040;SDS011;65974;42.664;23.264;2023-06-26T10:22:07;9.15;;;5.70;;
77040;SDS011;65974;42.664;23.264;2023-06-26T10:24:34;10.07;;;5.43;;
77040;SDS011;65974;42.664;23.264;2023-06-26T10:27:08;9.88;;;5.53;;
77040;SDS011;65974;42.664;23.264;2023-06-26T10:29:35;9.05;;;6.03;;
77040;SDS011;65974;42.664;23.264;2023-06-26T10:32:02;9.50;;;5.90;;
77040;SDS011;65974;42.664;23.264;2023-06-26T10:34:29;9.75;;;6.80;;
77040;SDS011;65974;42.664;23.264;2023-06-26T10:36:59;8.60;;;5.80;;
77040;SDS011;65974;42.664;23.264;2023-06-26T10:39:26;8.45;;;6.55;;
77040;SDS011;65974;42.664;23.264;2023-06-26T10:41:54;10.00;;;5.97;;
77040;SDS011;65974;42.664;23.264;2023-06-26T10:44:21;10.02;;;5.88;;
77040;SDS011;65974;42.664;23.264;2023-06-26T10:46:54;7.55;;;5.47;;
77040;SDS011;65974;42.664;23.264;2023-06-26T10:49:28;8.18;;;5.45;;
77040;SDS011;65974;42.664;23.264;2023-06-26T10:51:54;8.82;;;6.15;;
77040;SDS011;65974;42.664;23.264;2023-06-26T10:54:23;9.60;;;5.85;;
77040;SDS011;65974;42.664;23.264;2023-06-26T10:56:55;8.25;;;5.47;;
77040;SDS011;65974;42.664;23.264;2023-06-26T10:59:24;10.07;;;6.03;;
77040;SDS011;65974;42.664;23.264;2023-06-26T11:01:55;10.48;;;6.63;;
77040;SDS011;65974;42.664;23.264;2023-06-26T11:09:57;10.82;;;7.45;;
77040;SDS011;65974;42.664;23.264;2023-06-26T11:12:44;8.20;;;6.07;;
77040;SDS011;65974;42.664;23.264;2023-06-26T11:15:13;12.68;;;6.50;;
77040;SDS011;65974;42.664;23.264;2023-06-26T11:17:40;9.20;;;6.25;;
77040;SDS011;65974;42.664;23.264;2023-06-26T11:20:08;9.40;;;6.32;;
77040;SDS011;65974;42.664;23.264;2023-06-26T11:22:38;8.55;;;5.68;;
77040;SDS011;65974;42.664;23.264;2023-06-26T11:25:06;9.40;;;6.32;;
77040;SDS011;65974;42.664;23.264;2023-06-26T11:27:37;12.25;;;6.43;;
77040;SDS011;65974;42.664;23.264;2023-06-26T11:30:04;11.10;;;6.53;;
77040;SDS011;65974;42.664;23.264;2023-06-26T11:32:30;9.10;;;5.60;;
77040;SDS011;65974;42.664;23.264;2023-06-26T11:34:58;11.02;;;5.53;;
77040;SDS011;65974;42.664;23.264;2023-06-26T11:37:24;8.63;;;5.93;;
77040;SDS011;65974;42.664;23.264;2023-06-26T11:39:51;9.45;;;5.63;;
77040;SDS011;65974;42.664;23.264;2023-06-26T11:42:17;12.43;;;5.82;;
77040;SDS011;65974;42.664;23.264;2023-06-26T11:44:47;10.73;;;6.35;;
77040;SDS011;65974;42.664;23.264;2023-06-26T11:47:14;9.30;;;5.70;;
77040;SDS011;65974;42.664;23.264;2023-06-26T11:49:44;9.45;;;5.47;;
77040;SDS011;65974;42.664;23.264;2023-06-26T11:52:12;9.68;;;6.30;;
77040;SDS011;65974;42.664;23.264;2023-06-26T11:54:42;10.85;;;6.47;;
77040;SDS011;65974;42.664;23.264;2023-06-26T11:57:08;9.40;;;6.03;;
77040;SDS011;65974;42.664;23.264;2023-06-26T11:59:39;9.95;;;6.45;;
77040;SDS011;65974;42.664;23.264;2023-06-26T12:02:06;8.50;;;5.50;;
77040;SDS011;65974;42.664;23.264;2023-06-26T12:04:33;10.55;;;6.75;;
77040;SDS011;65974;42.664;23.264;2023-06-26T12:07:01;9.43;;;6.22;;
77040;SDS011;65974;42.664;23.264;2023-06-26T12:09:30;10.82;;;6.30;;
77040;SDS011;65974;42.664;23.264;2023-06-26T12:12:09;10.65;;;5.80;;
77040;SDS011;65974;42.664;23.264;2023-06-26T12:14:43;10.50;;;5.72;;
77040;SDS011;65974;42.664;23.264;2023-06-26T12:17:09;11.38;;;6.07;;
77040;SDS011;65974;42.664;23.264;2023-06-26T12:19:46;7.82;;;5.30;;
77040;SDS011;65974;42.664;23.264;2023-06-26T12:22:15;8.63;;;5.65;;
77040;SDS011;65974;42.664;23.264;2023-06-26T12:24:42;10.55;;;5.93;;
77040;SDS011;65974;42.664;23.264;2023-06-26T12:27:12;8.77;;;5.00;;
77040;SDS011;65974;42.664;23.264;2023-06-26T12:29:40;8.23;;;5.60;;
77040;SDS011;65974;42.664;23.264;2023-06-26T12:32:12;8.25;;;5.18;;
77040;SDS011;65974;42.664;23.264;2023-06-26T12:34:39;9.82;;;5.82;;
77040;SDS011;65974;42.664;23.264;2023-06-26T12:37:15;9.27;;;6.15;;
77040;SDS011;65974;42.664;23.264;2023-06-26T12:39:45;10.50;;;6.35;;
77040;SDS011;65974;42.664;23.264;2023-06-26T12:42:33;10.13;;;6.05;;
77040;SDS011;65974;42.664;23.264;2023-06-26T12:44:58;8.95;;;6.03;;
77040;SDS011;65974;42.664;23.264;2023-06-26T12:47:24;11.23;;;6.20;;
77040;SDS011;65974;42.664;23.264;2023-06-26T12:49:51;10.43;;;6.85;;
77040;SDS011;65974;42.664;23.264;2023-06-26T12:52:17;8.32;;;5.47;;
77040;SDS011;65974;42.664;23.264;2023-06-26T12:54:44;10.50;;;6.05;;
77040;SDS011;65974;42.664;23.264;2023-06-26T12:57:12;11.30;;;5.72;;
77040;SDS011;65974;42.664;23.264;2023-06-26T12:59:39;9.55;;;5.72;;
77040;SDS011;65974;42.664;23.264;2023-06-26T13:02:05;10.55;;;6.07;;
77040;SDS011;65974;42.664;23.264;2023-06-26T13:04:31;9.05;;;5.82;;
77040;SDS011;65974;42.664;23.264;2023-06-26T13:06:58;10.35;;;6.13;;
77040;SDS011;65974;42.664;23.264;2023-06-26T13:09:23;8.98;;;6.28;;
77040;SDS011;65974;42.664;23.264;2023-06-26T13:11:51;10.05;;;7.03;;
77040;SDS011;65974;42.664;23.264;2023-06-26T13:14:19;9.02;;;6.65;;
77040;SDS011;65974;42.664;23.264;2023-06-26T13:16:46;11.20;;;6.30;;
77040;SDS011;65974;42.664;23.264;2023-06-26T13:19:12;11.02;;;6.95;;
77040;SDS011;65974;42.664;23.264;2023-06-26T13:21:41;8.95;;;5.68;;
77040;SDS011;65974;42.664;23.264;2023-06-26T13:24:07;8.93;;;5.47;;
77040;SDS011;65974;42.664;23.264;2023-06-26T13:26:35;10.82;;;6.28;;
77040;SDS011;65974;42.664;23.264;2023-06-26T13:29:01;11.82;;;6.32;;
77040;SDS011;65974;42.664;23.264;2023-06-26T13:31:27;8.70;;;5.50;;
77040;SDS011;65974;42.664;23.264;2023-06-26T13:33:52;12.38;;;6.63;;
77040;SDS011;65974;42.664;23.264;2023-06-26T13:36:19;8.50;;;5.32;;
77040;SDS011;65974;42.664;23.264;2023-06-26T13:38:47;9.23;;;5.85;;
77040;SDS011;65974;42.664;23.264;2023-06-26T13:41:15;7.82;;;5.47;;
77040;SDS011;65974;42.664;23.264;2023-06-26T13:43:40;7.43;;;5.55;;
77040;SDS011;65974;42.664;23.264;2023-06-26T13:46:09;8.23;;;5.82;;
77040;SDS011;65974;42.664;23.264;2023-06-26T13:48:34;9.18;;;5.47;;
77040;SDS011;65974;42.664;23.264;2023-06-26T13:51:02;7.78;;;5.65;;
77040;SDS011;65974;42.664;23.264;2023-06-26T13:53:27;8.13;;;5.95;;
77040;SDS011;65974;42.664;23.264;2023-06-26T13:55:53;8.68;;;5.85;;
77040;SDS011;65974;42.664;23.264;2023-06-26T13:58:19;9.32;;;5.88;;
77040;SDS011;65974;42.664;23.264;2023-06-26T14:00:51;9.77;;;5.97;;
77040;SDS011;65974;42.664;23.264;2023-06-26T14:03:17;9.95;;;7.07;;
77040;SDS011;65974;42.664;23.264;2023-06-26T14:05:43;14.93;;;6.80;;
77040;SDS011;65974;42.664;23.264;2023-06-26T14:08:08;13.40;;;6.88;;
77040;SDS011;65974;42.664;23.264;2023-06-26T14:10:35;11.25;;;6.15;;
77040;SDS011;65974;42.664;23.264;2023-06-26T14:13:02;9.65;;;6.00;;
77040;SDS011;65974;42.664;23.264;2023-06-26T14:15:28;9.40;;;5.75;;
77040;SDS011;65974;42.664;23.264;2023-06-26T14:18:00;10.65;;;7.10;;
77040;SDS011;65974;42.664;23.264;2023-06-26T14:20:28;9.80;;;6.00;;
77040;SDS011;65974;42.664;23.264;2023-06-26T14:25:57;8.13;;;5.80;;
77040;SDS011;65974;42.664;23.264;2023-06-26T14:28:26;8.93;;;5.82;;
77040;SDS011;65974;42.664;23.264;2023-06-26T14:30:59;7.72;;;5.30;;
77040;SDS011;65974;42.664;23.264;2023-06-26T14:33:30;8.13;;;6.05;;
77040;SDS011;65974;42.664;23.264;2023-06-26T14:36:06;9.75;;;5.88;;
77040;SDS011;65974;42.664;23.264;2023-06-26T14:38:46;8.50;;;5.57;;
77040;SDS011;65974;42.664;23.264;2023-06-26T14:41:12;8.60;;;5.82;;
77040;SDS011;65974;42.664;23.264;2023-06-26T14:43:38;11.75;;;5.82;;
77040;SDS011;65974;42.664;23.264;2023-06-26T14:46:04;9.73;;;5.72;;
77040;SDS011;65974;42.664;23.264;2023-06-26T14:48:33;10.40;;;6.18;;
77040;SDS011;65974;42.664;23.264;2023-06-26T14:50:58;8.60;;;5.43;;
77040;SDS011;65974;42.664;23.264;2023-06-26T14:53:27;9.35;;;5.63;;
77040;SDS011;65974;42.664;23.264;2023-06-26T14:56:13;9.88;;;5.75;;